createdAt,value
2022-11-29T00:01:40.625Z,97282.97
2022-11-29T00:04:09.100Z,97281.94
2022-11-29T00:06:37.360Z,97279.44
2022-11-29T00:09:12.416Z,97279.66
2022-11-29T00:12:00.574Z,97284.13
2022-11-29T00:14:28.999Z,97282.00
2022-11-29T00:17:02.620Z,97276.50
2022-11-29T00:19:33.213Z,97285.16
2022-11-29T00:22:02.031Z,97279.81
2022-11-29T00:24:32.403Z,97282.16
2022-11-29T00:27:00.968Z,97284.00
2022-11-29T00:29:30.050Z,97277.84
2022-11-29T00:31:57.932Z,97282.34
2022-11-29T00:34:25.790Z,97279.66
2022-11-29T00:36:53.592Z,97280.69
2022-11-29T00:39:21.441Z,97271.38
2022-11-29T00:41:49.203Z,97276.34
2022-11-29T00:44:20.405Z,97275.53
2022-11-29T00:46:49.018Z,97285.84
2022-11-29T00:49:17.410Z,97277.50
2022-11-29T00:51:46.094Z,97280.16
2022-11-29T00:54:13.961Z,97280.31
2022-11-29T00:56:41.856Z,97281.34
2022-11-29T00:59:09.740Z,97283.00
2022-11-29T01:01:37.664Z,97286.31
2022-11-29T01:04:05.455Z,97286.13
2022-11-29T01:06:33.294Z,97286.13
2022-11-29T01:09:01.084Z,97285.47
2022-11-29T01:11:29.151Z,97290.50
2022-11-29T01:14:01.854Z,97295.66
2022-11-29T01:16:30.983Z,97293.84
2022-11-29T01:18:58.939Z,97293.00
2022-11-29T01:21:26.768Z,97293.38
2022-11-29T01:23:55.362Z,97291.19
2022-11-29T01:26:26.702Z,97290.34
2022-11-29T01:28:56.921Z,97300.19
2022-11-29T01:31:32.706Z,97291.75
2022-11-29T01:34:03.072Z,97290.34
2022-11-29T01:36:31.788Z,97292.03
2022-11-29T01:39:01.871Z,97297.09
2022-11-29T01:41:32.947Z,97295.91
2022-11-29T01:44:14.227Z,97296.97
2022-11-29T01:46:45.245Z,97301.56
2022-11-29T01:49:29.424Z,97293.59
2022-11-29T01:52:06.594Z,97296.13
2022-11-29T01:54:40.976Z,97295.25
2022-11-29T01:57:10.198Z,97292.22
2022-11-29T01:59:44.166Z,97297.19
2022-11-29T02:02:27.198Z,97298.88
2022-11-29T02:05:00.348Z,97297.19
2022-11-29T02:07:28.198Z,97297.94
2022-11-29T02:09:56.139Z,97294.41
2022-11-29T02:12:40.816Z,97294.75
2022-11-29T02:15:40.173Z,97293.56
2022-11-29T02:18:25.565Z,97296.06
2022-11-29T02:21:33.195Z,97299.25
2022-11-29T02:24:43.873Z,97299.94
2022-11-29T02:27:52.243Z,97299.31
2022-11-29T02:30:41.906Z,97299.59
2022-11-29T02:33:50.498Z,97293.94
2022-11-29T02:37:07.260Z,97298.63
2022-11-29T02:39:59.344Z,97293.00
2022-11-29T02:42:56.991Z,97298.13
2022-11-29T02:46:05.212Z,97302.44
2022-11-29T02:48:47.698Z,97302.28
2022-11-29T02:51:27.571Z,97305.59
2022-11-29T02:54:26.233Z,97306.16
2022-11-29T02:57:01.248Z,97296.97
2022-11-29T03:00:04.061Z,97298.13
2022-11-29T03:03:11.378Z,97306.56
2022-11-29T03:05:53.803Z,97304.28
2022-11-29T03:09:07.928Z,97313.63
2022-11-29T03:12:02.311Z,97308.13
2022-11-29T03:15:00.068Z,97318.25
2022-11-29T03:18:13.572Z,97314.09
2022-11-29T03:21:18.126Z,97316.06
2022-11-29T03:23:56.933Z,97323.03
2022-11-29T03:26:35.977Z,97316.53
2022-11-29T03:29:20.218Z,97313.53
2022-11-29T03:32:44.154Z,97319.09
2022-11-29T03:35:27.617Z,97322.75
2022-11-29T03:38:07.829Z,97318.44
2022-11-29T03:40:52.726Z,97328.41
2022-11-29T03:44:24.255Z,97323.22
2022-11-29T03:47:07.842Z,97333.53
2022-11-29T03:49:45.758Z,97323.22
2022-11-29T03:52:24.391Z,97327.53
2022-11-29T03:55:10.564Z,97336.03
2022-11-29T03:57:40.880Z,97328.84
2022-11-29T04:00:13.048Z,97339.84
2022-11-29T04:03:25.067Z,97331.88
2022-11-29T04:06:17.074Z,97339.88
2022-11-29T04:09:31.364Z,97331.91
2022-11-29T04:12:23.787Z,97336.53
2022-11-29T04:15:40.974Z,97336.22
2022-11-29T04:18:27.481Z,97340.03
2022-11-29T04:21:24.470Z,97346.38
2022-11-29T04:24:44.842Z,97347.38
2022-11-29T04:27:52.888Z,97342.69
2022-11-29T04:30:23.307Z,97350.22
2022-11-29T04:32:51.014Z,97356.88
2022-11-29T04:36:27.071Z,97353.03
2022-11-29T04:39:13.770Z,97364.16
2022-11-29T04:41:51.492Z,97364.34
2022-11-29T04:44:36.951Z,97363.53
2022-11-29T04:47:10.438Z,97359.69
2022-11-29T04:50:37.738Z,97361.31
2022-11-29T04:53:44.719Z,97366.66
2022-11-29T04:56:45.497Z,97372.97
2022-11-29T04:59:25.089Z,97377.00
2022-11-29T05:02:30.319Z,97375.84
2022-11-29T05:05:29.376Z,97376.16
2022-11-29T05:08:35.080Z,97376.47
2022-11-29T05:11:20.805Z,97386.28
2022-11-29T05:13:59.044Z,97382.63
2022-11-29T05:17:09.576Z,97385.81
2022-11-29T05:20:08.126Z,97384.81
2022-11-29T05:23:13.014Z,97383.47
2022-11-29T05:26:14.970Z,97391.25
2022-11-29T05:28:45.610Z,97396.78
2022-11-29T05:31:48.812Z,97392.28
2022-11-29T05:34:45.517Z,97394.13
2022-11-29T05:37:37.743Z,97388.97
2022-11-29T05:40:20.763Z,97399.28
2022-11-29T05:43:21.273Z,97399.28
2022-11-29T05:46:29.325Z,97403.94
2022-11-29T05:49:18.908Z,97395.91
2022-11-29T05:52:11.639Z,97403.06
2022-11-29T05:55:16.600Z,97403.78
2022-11-29T05:58:30.113Z,97411.78
2022-11-29T06:01:22.060Z,97408.63
2022-11-29T06:04:14.992Z,97406.78
2022-11-29T06:07:14.230Z,97417.56
2022-11-29T06:10:00.537Z,97416.44
2022-11-29T06:12:35.819Z,97419.59
2022-11-29T06:15:24.625Z,97419.59
2022-11-29T06:18:03.372Z,97421.75
2022-11-29T06:21:00.703Z,97421.44
2022-11-29T06:23:35.153Z,97425.72
2022-11-29T06:26:29.251Z,97430.06
2022-11-29T06:29:33.949Z,97434.19
2022-11-29T06:32:10.390Z,97433.06
2022-11-29T06:34:59.281Z,97434.53
2022-11-29T06:37:45.059Z,97436.03
2022-11-29T06:40:16.039Z,97440.03
2022-11-29T06:42:44.207Z,97446.38
2022-11-29T06:45:14.895Z,97442.03
2022-11-29T06:47:44.198Z,97443.38
2022-11-29T06:50:53.165Z,97451.63
2022-11-29T06:53:23.858Z,97454.16
2022-11-29T06:56:21.412Z,97456.19
2022-11-29T06:59:29.128Z,97457.19
2022-11-29T07:02:35.329Z,97453.19
2022-11-29T07:05:36.456Z,97456.66
2022-11-29T07:08:24.191Z,97458.03
2022-11-29T07:10:55.644Z,97468.69
2022-11-29T07:13:23.926Z,97468.53
2022-11-29T07:16:25.061Z,97479.66
2022-11-29T07:19:44.044Z,97473.66
2022-11-29T07:22:37.797Z,97476.66
2022-11-29T07:25:20.949Z,97477.00
2022-11-29T07:28:38.265Z,97481.47
2022-11-29T07:31:19.775Z,97491.09
2022-11-29T07:34:19.915Z,97479.97
2022-11-29T07:37:32.221Z,97485.47
2022-11-29T07:40:19.621Z,97486.81
2022-11-29T07:43:14.350Z,97488.22
2022-11-29T07:45:42.287Z,97487.78
2022-11-29T07:48:15.358Z,97491.28
2022-11-29T07:50:44.181Z,97492.97
2022-11-29T07:53:19.218Z,97499.28
2022-11-29T07:55:49.230Z,97499.44
2022-11-29T07:58:18.705Z,97493.97
2022-11-29T08:00:46.622Z,97500.78
2022-11-29T08:03:16.759Z,97494.97
2022-11-29T08:05:49.116Z,97497.81
2022-11-29T08:08:17.195Z,97496.94
2022-11-29T08:10:45.276Z,97505.44
2022-11-29T08:13:13.646Z,97504.63
2022-11-29T08:15:46.834Z,97504.63
2022-11-29T08:18:15.940Z,97506.63
2022-11-29T08:20:43.958Z,97506.94
2022-11-29T08:23:13.318Z,97511.59
2022-11-29T08:25:41.625Z,97518.75
2022-11-29T08:28:09.992Z,97515.63
2022-11-29T08:30:37.932Z,97521.09
2022-11-29T08:33:06.042Z,97521.56
2022-11-29T08:35:36.024Z,97521.25
2022-11-29T08:38:05.100Z,97527.75
2022-11-29T08:40:32.991Z,97522.41
2022-11-29T08:43:00.763Z,97527.56
2022-11-29T08:45:28.625Z,97526.75
2022-11-29T08:47:56.399Z,97532.06
2022-11-29T08:50:24.646Z,97528.41
2022-11-29T08:53:11.335Z,97536.25
2022-11-29T08:55:42.852Z,97530.59
2022-11-29T08:58:14.491Z,97536.88
2022-11-29T09:00:46.907Z,97534.25
2022-11-29T09:03:33.783Z,97532.94
2022-11-29T09:06:13.494Z,97538.06
2022-11-29T09:08:45.563Z,97547.38
2022-11-29T09:11:23.049Z,97545.69
2022-11-29T09:13:54.686Z,97549.03
2022-11-29T09:16:28.703Z,97548.72
2022-11-29T09:18:57.429Z,97554.97
2022-11-29T09:21:27.771Z,97553.81
2022-11-29T09:23:59.472Z,97561.66
2022-11-29T09:26:31.041Z,97558.63
2022-11-29T09:29:01.479Z,97567.88
2022-11-29T09:31:31.446Z,97559.06
2022-11-29T09:33:59.520Z,97560.72
2022-11-29T09:36:29.539Z,97568.47
2022-11-29T09:38:59.106Z,97576.31
2022-11-29T09:41:54.317Z,97568.31
2022-11-29T09:44:59.399Z,97569.47
2022-11-29T09:47:42.096Z,97576.81
2022-11-29T09:50:35.406Z,97570.84
2022-11-29T09:53:30.597Z,97573.63
2022-11-29T09:56:16.485Z,97577.09
2022-11-29T09:58:54.196Z,97581.09
2022-11-29T10:01:40.275Z,97579.59
2022-11-29T10:04:19.858Z,97585.41
2022-11-29T10:07:14.590Z,97589.06
2022-11-29T10:09:56.508Z,97584.81
2022-11-29T10:12:46.316Z,97591.44
2022-11-29T10:15:29.291Z,97584.97
2022-11-29T10:18:32.352Z,97588.31
2022-11-29T10:21:12.771Z,97580.50
2022-11-29T10:23:53.517Z,97583.53
2022-11-29T10:26:23.045Z,97584.00
2022-11-29T10:28:51.527Z,97580.81
2022-11-29T10:31:26.872Z,97586.66
2022-11-29T10:33:59.416Z,97586.66
2022-11-29T10:36:50.853Z,97585.81
2022-11-29T10:39:37.180Z,97586.34
2022-11-29T10:42:32.815Z,97580.66
2022-11-29T10:45:01.239Z,97579.38
2022-11-29T10:47:29.133Z,97584.50
2022-11-29T10:49:58.575Z,97583.69
2022-11-29T10:52:26.450Z,97580.19
2022-11-29T10:55:00.104Z,97581.03
2022-11-29T10:57:27.972Z,97581.69
2022-11-29T11:00:06.937Z,97582.69
2022-11-29T11:02:35.983Z,97582.03
2022-11-29T11:05:13.045Z,97582.19
2022-11-29T11:07:41.351Z,97581.03
2022-11-29T11:10:41.452Z,97582.53
2022-11-29T11:13:26.985Z,97588.19
2022-11-29T11:16:08.060Z,97578.19
2022-11-29T11:18:37.247Z,97574.31
2022-11-29T11:21:13.981Z,97569.38
2022-11-29T11:24:03.064Z,97578.03
2022-11-29T11:26:44.467Z,97577.88
2022-11-29T11:29:20.924Z,97573.56
2022-11-29T11:31:58.892Z,97577.38
2022-11-29T11:34:35.726Z,97578.22
2022-11-29T11:37:29.139Z,97580.38
2022-11-29T11:40:26.457Z,97580.38
2022-11-29T11:42:56.986Z,97587.22
2022-11-29T11:45:33.510Z,97589.72
2022-11-29T11:48:17.719Z,97590.69
2022-11-29T11:50:57.745Z,97596.69
2022-11-29T11:53:33.930Z,97590.53
2022-11-29T11:56:04.146Z,97592.03
2022-11-29T11:58:37.794Z,97595.34
2022-11-29T12:01:28.644Z,97599.53
2022-11-29T12:04:04.829Z,97601.66
2022-11-29T12:06:52.282Z,97607.81
2022-11-29T12:09:45.963Z,97605.00
2022-11-29T12:12:28.778Z,97606.66
2022-11-29T12:15:04.726Z,97609.16
2022-11-29T12:17:55.900Z,97607.16
2022-11-29T12:20:32.640Z,97607.81
2022-11-29T12:23:31.108Z,97603.66
2022-11-29T12:26:56.043Z,97612.50
2022-11-29T12:29:18.771Z,97615.81
2022-11-29T12:32:37.871Z,97619.31
2022-11-29T12:35:08.559Z,97622.63
2022-11-29T12:38:00.687Z,97618.13
2022-11-29T12:40:52.959Z,97622.47
2022-11-29T12:44:03.699Z,97621.47
2022-11-29T12:46:33.098Z,97623.97
2022-11-29T12:49:15.022Z,97625.31
2022-11-29T12:52:00.587Z,97621.47
2022-11-29T12:54:51.408Z,97626.50
2022-11-29T12:57:40.124Z,97618.00
2022-11-29T13:00:19.089Z,97619.84
2022-11-29T13:03:26.231Z,97622.81
2022-11-29T13:06:42.099Z,97622.66
2022-11-29T13:09:36.880Z,97629.50
2022-11-29T13:12:35.858Z,97626.84
2022-11-29T13:15:44.367Z,97631.00
2022-11-29T13:18:37.016Z,97628.50
2022-11-29T13:21:37.335Z,97633.16
2022-11-29T13:24:22.518Z,97633.31
2022-11-29T13:26:51.723Z,97635.34
2022-11-29T13:29:20.724Z,97633.66
2022-11-29T13:31:49.947Z,97637.66
2022-11-29T13:34:42.605Z,97641.66
2022-11-29T13:37:16.488Z,97639.50
2022-11-29T13:40:06.505Z,97632.66
2022-11-29T13:43:23.343Z,97630.34
2022-11-29T13:46:08.436Z,97636.00
2022-11-29T13:48:48.750Z,97639.19
2022-11-29T13:51:28.565Z,97639.19
2022-11-29T13:54:00.837Z,97642.66
2022-11-29T13:56:49.768Z,97642.50
2022-11-29T13:59:45.800Z,97642.97
2022-11-29T14:02:36.764Z,97648.50
2022-11-29T14:05:07.969Z,97648.81
2022-11-29T14:07:56.103Z,97658.34
2022-11-29T14:10:29.053Z,97650.34
2022-11-29T14:12:59.927Z,97646.66
2022-11-29T14:15:33.917Z,97654.47
2022-11-29T14:18:25.393Z,97655.81
2022-11-29T14:20:58.243Z,97659.00
2022-11-29T14:23:38.035Z,97658.31
2022-11-29T14:26:05.815Z,97657.66
2022-11-29T14:28:34.565Z,97655.16
2022-11-29T14:31:04.549Z,97660.47
2022-11-29T14:33:47.490Z,97650.63
2022-11-29T14:36:15.148Z,97660.31
2022-11-29T14:39:29.148Z,97658.13
2022-11-29T14:42:19.403Z,97661.16
2022-11-29T14:45:01.873Z,97659.81
2022-11-29T14:47:47.452Z,97666.81
2022-11-29T14:50:35.781Z,97660.34
2022-11-29T14:53:07.477Z,97664.50
2022-11-29T14:55:38.250Z,97668.81
2022-11-29T14:58:18.207Z,97669.50
2022-11-29T15:00:48.798Z,97675.84
2022-11-29T15:03:16.464Z,97677.16
2022-11-29T15:05:51.231Z,97678.63
2022-11-29T15:09:12.972Z,97691.50
2022-11-29T15:12:08.177Z,97686.34
2022-11-29T15:15:09.285Z,97692.31
2022-11-29T15:18:03.521Z,97689.66
2022-11-29T15:21:18.175Z,97688.81
2022-11-29T15:23:46.176Z,97686.81
2022-11-29T15:26:20.870Z,97690.66
2022-11-29T15:28:48.643Z,97691.16
2022-11-29T15:31:20.851Z,97698.00
2022-11-29T15:33:50.581Z,97700.69
2022-11-29T15:36:24.252Z,97699.81
2022-11-29T15:38:55.129Z,97708.84
2022-11-29T15:41:35.601Z,97706.84
2022-11-29T15:44:22.415Z,97705.00
2022-11-29T15:46:50.267Z,97707.97
2022-11-29T15:49:28.207Z,97708.47
2022-11-29T15:52:07.731Z,97712.84
2022-11-29T15:54:49.958Z,97709.00
2022-11-29T15:57:30.650Z,97716.84
2022-11-29T16:00:16.294Z,97723.00
2022-11-29T16:03:04.257Z,97722.31
2022-11-29T16:05:36.441Z,97717.81
2022-11-29T16:08:14.866Z,97729.97
2022-11-29T16:10:49.371Z,97729.97
2022-11-29T16:13:37.068Z,97733.16
2022-11-29T16:16:11.191Z,97735.81
2022-11-29T16:18:41.977Z,97726.47
2022-11-29T16:21:30.689Z,97735.97
2022-11-29T16:24:10.273Z,97729.97
2022-11-29T16:26:44.007Z,97735.00
2022-11-29T16:29:41.590Z,97739.47
2022-11-29T16:32:31.285Z,97742.13
2022-11-29T16:35:21.439Z,97745.66
2022-11-29T16:37:49.745Z,97746.16
2022-11-29T16:40:30.209Z,97749.97
2022-11-29T16:43:03.671Z,97742.78
2022-11-29T16:45:41.685Z,97751.16
2022-11-29T16:48:27.054Z,97752.16
2022-11-29T16:51:10.197Z,97746.63
2022-11-29T16:53:47.687Z,97745.00
2022-11-29T16:56:28.134Z,97751.50
2022-11-29T16:59:25.906Z,97753.97
2022-11-29T17:01:49.485Z,97755.31
2022-11-29T17:04:23.375Z,97751.81
2022-11-29T17:06:56.473Z,97756.97
2022-11-29T17:09:28.286Z,97761.47
2022-11-29T17:11:59.899Z,97760.47
2022-11-29T17:14:52.811Z,97762.97
2022-11-29T17:17:20.684Z,97761.13
2022-11-29T17:19:48.473Z,97762.28
2022-11-29T17:22:16.346Z,97764.94
2022-11-29T17:24:48.282Z,97769.81
2022-11-29T17:27:16.746Z,97767.44
2022-11-29T17:29:44.474Z,97769.44
2022-11-29T17:32:12.275Z,97768.44
2022-11-29T17:34:40.076Z,97775.28
2022-11-29T17:37:07.938Z,97776.94
2022-11-29T17:39:35.705Z,97775.78
2022-11-29T17:42:03.719Z,97776.63
2022-11-29T17:44:33.941Z,97773.63
2022-11-29T17:47:01.731Z,97784.09
2022-11-29T17:49:29.527Z,97779.13
2022-11-29T17:51:57.273Z,97778.28
2022-11-29T17:54:25.145Z,97782.78
2022-11-29T17:56:52.897Z,97784.59
2022-11-29T17:59:21.003Z,97781.44
2022-11-29T18:01:49.583Z,97789.28
2022-11-29T18:04:19.047Z,97791.94
2022-11-29T18:06:50.179Z,97800.09
2022-11-29T18:09:19.965Z,97794.59
2022-11-29T18:11:50.314Z,97793.59
2022-11-29T18:14:28.254Z,97797.44
2022-11-29T18:16:56.481Z,97789.28
2022-11-29T18:19:25.317Z,97788.75
2022-11-29T18:21:53.218Z,97795.09
2022-11-29T18:24:21.838Z,97794.41
2022-11-29T18:26:49.807Z,97795.41
2022-11-29T18:29:17.750Z,97799.06
2022-11-29T18:31:46.396Z,97801.72
2022-11-29T18:34:15.466Z,97793.91
2022-11-29T18:36:48.730Z,97796.75
2022-11-29T18:39:19.467Z,97802.22
2022-11-29T18:41:49.984Z,97810.88
2022-11-29T18:44:21.551Z,97809.91
2022-11-29T18:46:49.469Z,97813.56
2022-11-29T18:49:18.603Z,97818.06
2022-11-29T18:51:47.677Z,97819.03
2022-11-29T18:54:18.273Z,97820.72
2022-11-29T18:56:46.771Z,97819.56
2022-11-29T18:59:17.524Z,97827.91
2022-11-29T19:01:48.184Z,97833.09
2022-11-29T19:04:20.530Z,97833.09
2022-11-29T19:06:49.339Z,97834.22
2022-11-29T19:09:22.436Z,97838.41
2022-11-29T19:11:50.980Z,97832.91
2022-11-29T19:14:19.828Z,97840.91
2022-11-29T19:16:49.662Z,97839.91
2022-11-29T19:19:18.981Z,97835.41
2022-11-29T19:21:47.704Z,97837.25
2022-11-29T19:24:18.034Z,97832.91
2022-11-29T19:26:48.174Z,97832.22
2022-11-29T19:29:17.387Z,97835.38
2022-11-29T19:31:45.461Z,97830.38
2022-11-29T19:34:13.828Z,97832.22
2022-11-29T19:36:43.715Z,97834.72
2022-11-29T19:39:15.678Z,97824.72
2022-11-29T19:41:47.035Z,97828.22
2022-11-29T19:44:15.238Z,97830.22
2022-11-29T19:46:47.078Z,97831.91
2022-11-29T19:49:14.987Z,97824.88
2022-11-29T19:51:43.070Z,97825.91
2022-11-29T19:54:11.900Z,97829.69
2022-11-29T19:56:40.230Z,97826.34
2022-11-29T19:59:08.810Z,97823.50
2022-11-29T20:01:42.042Z,97824.31
2022-11-29T20:04:13.446Z,97831.47
2022-11-29T20:06:43.082Z,97832.28
2022-11-29T20:09:13.554Z,97828.41
2022-11-29T20:11:41.312Z,97823.09
2022-11-29T20:14:11.772Z,97830.91
2022-11-29T20:16:39.585Z,97829.75
2022-11-29T20:19:14.132Z,97827.78
2022-11-29T20:21:48.765Z,97831.59
2022-11-29T20:24:19.364Z,97841.25
2022-11-29T20:26:49.428Z,97846.56
2022-11-29T20:29:18.875Z,97853.41
2022-11-29T20:31:50.811Z,97856.94
2022-11-29T20:34:19.872Z,97864.59
2022-11-29T20:37:30.428Z,97866.94
2022-11-29T20:40:28.157Z,97867.28
2022-11-29T20:43:22.225Z,97859.47
2022-11-29T20:45:50.471Z,97861.13
2022-11-29T20:48:23.425Z,97862.13
2022-11-29T20:51:00.889Z,97856.97
2022-11-29T20:53:43.652Z,97860.78
2022-11-29T20:56:12.303Z,97858.91
2022-11-29T20:58:40.394Z,97856.56
2022-11-29T21:01:08.365Z,97853.69
2022-11-29T21:03:36.394Z,97849.16
2022-11-29T21:06:05.914Z,97864.63
2022-11-29T21:08:34.315Z,97858.22
2022-11-29T21:11:08.960Z,97861.88
2022-11-29T21:13:37.612Z,97858.22
2022-11-29T21:16:06.152Z,97855.72
2022-11-29T21:18:34.563Z,97856.56
2022-11-29T21:21:40.720Z,97863.38
2022-11-29T21:24:28.367Z,97859.84
2022-11-29T21:26:56.389Z,97858.19
2022-11-29T21:29:24.666Z,97856.16
2022-11-29T21:31:54.370Z,97852.97
2022-11-29T21:34:22.525Z,97859.41
2022-11-29T21:36:56.919Z,97862.84
2022-11-29T21:39:32.544Z,97869.19
2022-11-29T21:42:00.504Z,97863.72
2022-11-29T21:44:28.287Z,97864.84
2022-11-29T21:46:56.088Z,97864.34
2022-11-29T21:49:23.867Z,97866.13
2022-11-29T21:51:51.666Z,97871.16
2022-11-29T21:54:19.402Z,97869.19
2022-11-29T21:56:47.180Z,97866.81
2022-11-29T21:59:14.973Z,97861.50
2022-11-29T22:01:42.907Z,97859.00
2022-11-29T22:04:10.862Z,97856.66
2022-11-29T22:06:39.237Z,97860.34
2022-11-29T22:09:07.765Z,97863.00
2022-11-29T22:11:35.930Z,97859.84
2022-11-29T22:14:16.189Z,97864.84
2022-11-29T22:16:58.411Z,97870.47
2022-11-29T22:19:36.192Z,97862.25
2022-11-29T22:22:09.127Z,97875.13
2022-11-29T22:24:38.063Z,97870.69
2022-11-29T22:27:05.889Z,97876.78
2022-11-29T22:29:33.630Z,97872.53
2022-11-29T22:32:02.323Z,97868.41
2022-11-29T22:34:30.110Z,97860.81
2022-11-29T22:36:57.937Z,97860.41
2022-11-29T22:39:25.735Z,97861.88
2022-11-29T22:41:55.019Z,97869.19
2022-11-29T22:44:26.252Z,97865.38
2022-11-29T22:46:54.183Z,97871.84
2022-11-29T22:49:22.810Z,97874.13
2022-11-29T22:51:50.605Z,97873.28
2022-11-29T22:54:18.354Z,97875.81
2022-11-29T22:56:46.705Z,97871.16
2022-11-29T22:59:14.560Z,97874.78
2022-11-29T23:01:42.873Z,97874.13
2022-11-29T23:04:12.258Z,97879.28
2022-11-29T23:06:43.889Z,97886.13
2022-11-29T23:09:22.310Z,97878.13
2022-11-29T23:11:55.929Z,97879.97
2022-11-29T23:14:24.604Z,97875.81
2022-11-29T23:16:52.962Z,97873.16
2022-11-29T23:19:21.216Z,97875.81
2022-11-29T23:21:49.164Z,97874.66
2022-11-29T23:24:17.152Z,97867.97
2022-11-29T23:26:46.906Z,97872.31
2022-11-29T23:29:19.810Z,97870.47
2022-11-29T23:31:50.159Z,97876.78
2022-11-29T23:34:17.972Z,97872.03
2022-11-29T23:36:51.130Z,97873.88
2022-11-29T23:39:20.930Z,97866.88
2022-11-29T23:41:48.691Z,97868.13
2022-11-29T23:44:16.440Z,97867.13
2022-11-29T23:46:44.213Z,97870.34
2022-11-29T23:49:12.221Z,97873.28
2022-11-29T23:51:40.005Z,97867.97
2022-11-29T23:54:07.913Z,97865.00
2022-11-29T23:56:35.776Z,97868.34
2022-11-29T23:59:03.608Z,97865.16
